| time (UTC) | temp C | wind direction | speed KPH | gust KPH | rain 1hr cm | rain 24hr cm | rain mn cm | humidity % | barometer mb |
| 20260904081025 | 29 | 40 | 22.5 | 43.5 | 0.00 | 0.00 | 0.00 | 49 | 1015.9 |
| 20260904080524 | 30 | 17 | 24.1 | 37.0 | 0.00 | 0.00 | 0.00 | 48 | 1015.8 |
| 20260904080024 | 29 | 349 | 11.3 | 29.0 | 0.00 | 0.00 | 0.00 | 50 | 1015.7 |
| 20260904075519 | 29 | 86 | 17.7 | 35.4 | 0.00 | 0.00 | 0.00 | 50 | 1015.8 |
| 20260904075018 | 29 | 79 | 17.7 | 35.4 | 0.00 | 0.00 | 0.00 | 50 | 1015.7 |
| 20260904074516 | 29 | 75 | 17.7 | 30.6 | 0.00 | 0.00 | 0.00 | 51 | 1015.7 |
| 20260904074014 | 29 | 61 | 19.3 | 30.6 | 0.00 | 0.00 | 0.00 | 51 | 1015.6 |
| 20260904073513 | 28 | 26 | 14.5 | 30.6 | 0.00 | 0.00 | 0.00 | 52 | 1015.5 |
| 20260904073012 | 28 | 13 | 17.7 | 29.0 | 0.00 | 0.00 | 0.00 | 51 | 1015.5 |
| 20260904072510 | 28 | 47 | 12.9 | 29.0 | 0.00 | 0.00 | 0.00 | 50 | 1015.5 |
| 20260904072013 | 28 | 46 | 16.1 | 37.0 | 0.00 | 0.00 | 0.00 | 51 | 1015.5 |
| 20260904071510 | 28 | 30 | 14.5 | 37.0 | 0.00 | 0.00 | 0.00 | 50 | 1015.4 |
| 20260904071007 | 28 | 9 | 19.3 | 38.6 | 0.00 | 0.00 | 0.00 | 50 | 1015.5 |
| 20260904070509 | 28 | 24 | 19.3 | 38.6 | 0.00 | 0.00 | 0.00 | 50 | 1015.4 |
| 20260904070004 | 28 | 46 | 12.9 | 35.4 | 0.00 | 0.00 | 0.00 | 49 | 1015.4 |
| 20260904065503 | 28 | 22 | 20.9 | 35.4 | 0.00 | 0.00 | 0.00 | 49 | 1015.3 |
| 20260904065001 | 28 | 55 | 17.7 | 35.4 | 0.00 | 0.00 | 0.00 | 49 | 1015.2 |
| 20260904064604 | 28 | 24 | 20.9 | 37.0 | 0.00 | 0.00 | 0.00 | 48 | 1015.0 |
| 20260904064100 | 28 | 11 | 24.1 | 37.0 | 0.00 | 0.00 | 0.00 | 48 | 1015.0 |
| 20260904063556 | 28 | 13 | 19.3 | 33.8 | 0.00 | 0.00 | 0.00 | 48 | 1014.9 |
| 20260904063105 | 28 | 20 | 19.3 | 33.8 | 0.00 | 0.00 | 0.00 | 49 | 1014.8 |
| 20260904062553 | 28 | 360 | 16.1 | 33.8 | 0.00 | 0.00 | 0.00 | 49 | 1014.8 |
| 20260904062051 | 28 | 82 | 14.5 | 33.8 | 0.00 | 0.00 | 0.00 | 49 | 1014.8 |
| 20260904061550 | 28 | 34 | 14.5 | 29.0 | 0.00 | 0.00 | 0.00 | 49 | 1014.8 |
| 20260904061050 | 28 | 38 | 19.3 | 29.0 | 0.00 | 0.00 | 0.00 | 50 | 1014.8 |
| 20260904060548 | 28 | 355 | 11.3 | 20.9 | 0.00 | 0.00 | 0.00 | 50 | 1014.9 |
| 20260904060100 | 28 | 184 | 1.6 | 17.7 | 0.00 | 0.00 | 0.00 | 49 | 1014.9 |
| 20260904055545 | 28 | 13 | 3.2 | 17.7 | 0.00 | 0.00 | 0.00 | 49 | 1015.0 |
| 20260904055044 | 28 | 11 | 8.0 | 27.4 | 0.00 | 0.00 | 0.00 | 50 | 1015.0 |
| 20260904054555 | 27 | 355 | 9.7 | 27.4 | 0.00 | 0.00 | 0.00 | 51 | 1015.1 |
| 20260904054040 | 27 | 270 | 3.2 | 8.0 | 0.00 | 0.00 | 0.00 | 54 | 1015.0 |
| 20260904053539 | 26 | 273 | 3.2 | 8.0 | 0.00 | 0.00 | 0.00 | 55 | 1015.0 |
| 20260904053044 | 26 | 198 | 3.2 | 6.4 | 0.00 | 0.00 | 0.00 | 56 | 1014.9 |
| 20260904052537 | 26 | 178 | 1.6 | 8.0 | 0.00 | 0.00 | 0.00 | 58 | 1014.9 |
| 20260904052036 | 26 | 196 | 4.8 | 11.3 | 0.00 | 0.00 | 0.00 | 58 | 1014.9 |
| 20260904051536 | 26 | 167 | 4.8 | 12.9 | 0.00 | 0.00 | 0.00 | 57 | 1014.8 |
| 20260904051032 | 26 | 217 | 1.6 | 8.0 | 0.00 | 0.00 | 0.00 | 56 | 1014.6 |
| 20260904050531 | 26 | 179 | 1.6 | 4.8 | 0.00 | 0.00 | 0.00 | 57 | 1014.7 |
| 20260904050037 | 26 | 177 | 0.0 | 3.2 | 0.00 | 0.00 | 0.00 | 58 | 1014.8 |
| 20260904045533 | 25 | 139 | 0.0 | 6.4 | 0.00 | 0.00 | 0.00 | 58 | 1014.9 |
| 20260904045028 | 25 | 139 | 1.6 | 9.7 | 0.00 | 0.00 | 0.00 | 58 | 1014.8 |
| 20260904044527 | 25 | 169 | 4.8 | 11.3 | 0.00 | 0.00 | 0.00 | 59 | 1014.7 |
| 20260904044025 | 25 | 188 | 3.2 | 19.3 | 0.00 | 0.00 | 0.00 | 60 | 1014.8 |
| 20260904043525 | 25 | 188 | 12.9 | 19.3 | 0.00 | 0.00 | 0.00 | 60 | 1014.7 |
| 20260904043037 | 25 | 177 | 3.2 | 11.3 | 0.00 | 0.00 | 0.00 | 60 | 1014.9 |
| 20260904042520 | 25 | 186 | 4.8 | 12.9 | 0.00 | 0.00 | 0.00 | 60 | 1014.9 |
| 20260904042020 | 25 | 170 | 4.8 | 12.9 | 0.00 | 0.00 | 0.00 | 60 | 1014.9 |
| 20260904041518 | 25 | 188 | 6.4 | 9.7 | 0.00 | 0.00 | 0.00 | 59 | 1014.8 |
| 20260904041017 | 25 | 166 | 4.8 | 11.3 | 0.00 | 0.00 | 0.00 | 59 | 1014.7 |
| 20260904040517 | 25 | 161 | 6.4 | 9.7 | 0.00 | 0.00 | 0.00 | 58 | 1014.7 |
| 20260904040021 | 25 | 170 | 6.4 | 9.7 | 0.00 | 0.00 | 0.00 | 58 | 1014.7 |
| 20260904035518 | 25 | 188 | 3.2 | 6.4 | 0.00 | 0.00 | 0.00 | 57 | 1014.6 |
| 20260904035015 | 25 | 192 | 3.2 | 6.4 | 0.00 | 0.00 | 0.00 | 56 | 1014.5 |
| 20260904034520 | 25 | 214 | 0.0 | 6.4 | 0.00 | 0.00 | 0.00 | 56 | 1014.6 |
| 20260904034015 | 25 | 244 | 3.2 | 8.0 | 0.00 | 0.00 | 0.00 | 56 | 1014.6 |
| 20260904033518 | 25 | 257 | 4.8 | 8.0 | 0.00 | 0.00 | 0.00 | 56 | 1014.6 |
| 20260904033022 | 25 | 42 | 0.0 | 4.8 | 0.00 | 0.00 | 0.00 | 55 | 1014.6 |
| 20260904032514 | 25 | 15 | 0.0 | 4.8 | 0.00 | 0.00 | 0.00 | 55 | 1014.7 |
| 20260904032014 | 25 | 351 | 1.6 | 8.0 | 0.00 | 0.00 | 0.00 | 55 | 1014.6 |
| 20260904031514 | 25 | 172 | 3.2 | 9.7 | 0.00 | 0.00 | 0.00 | 56 | 1014.5 |
| 20260904031013 | 25 | 355 | 4.8 | 9.7 | 0.00 | 0.00 | 0.00 | 56 | 1014.7 |
| 20260904030514 | 25 | 157 | 6.4 | 9.7 | 0.00 | 0.00 | 0.00 | 56 | 1014.4 |
| 20260904030013 | 25 | 299 | 0.0 | 6.4 | 0.00 | 0.00 | 0.00 | 56 | 1014.4 |
| 20260904025512 | 25 | 192 | 3.2 | 8.0 | 0.00 | 0.00 | 0.00 | 55 | 1014.4 |
| 20260904025012 | 25 | 194 | 1.6 | 9.7 | 0.00 | 0.00 | 0.00 | 55 | 1014.4 |
| 20260904024512 | 25 | 159 | 4.8 | 11.3 | 0.00 | 0.00 | 0.00 | 55 | 1014.3 |
| 20260904024014 | 25 | 141 | 4.8 | 11.3 | 0.00 | 0.00 | 0.00 | 55 | 1014.4 |
| 20260904023512 | 25 | 136 | 6.4 | 11.3 | 0.00 | 0.00 | 0.00 | 55 | 1014.4 |
| 20260904023011 | 25 | 151 | 6.4 | 12.9 | 0.00 | 0.00 | 0.00 | 55 | 1014.3 |
| 20260904022511 | 25 | 174 | 9.7 | 12.9 | 0.00 | 0.00 | 0.00 | 55 | 1014.4 |
| 20260904022010 | 25 | 123 | 1.6 | 14.5 | 0.00 | 0.00 | 0.00 | 55 | 1014.4 |
| 20260904021515 | 25 | 132 | 8.0 | 14.5 | 0.00 | 0.00 | 0.00 | 55 | 1014.5 |
| 20260904021010 | 25 | 184 | 4.8 | 11.3 | 0.00 | 0.00 | 0.00 | 54 | 1014.4 |
| 20260904020510 | 25 | 171 | 4.8 | 8.0 | 0.00 | 0.00 | 0.00 | 54 | 1014.4 |
| 20260904020009 | 25 | 195 | 4.8 | 6.4 | 0.00 | 0.00 | 0.00 | 54 | 1014.4 |
| 20260904015509 | 25 | 318 | 0.0 | 4.8 | 0.00 | 0.00 | 0.00 | 55 | 1014.5 |
| 20260904015009 | 25 | 323 | 0.0 | 4.8 | 0.00 | 0.00 | 0.00 | 54 | 1014.5 |
| 20260904014509 | 25 | 227 | 1.6 | 4.8 | 0.00 | 0.00 | 0.00 | 54 | 1014.5 |
| 20260904014008 | 25 | 268 | 0.0 | 4.8 | 0.00 | 0.00 | 0.00 | 54 | 1014.5 |
| 20260904013509 | 25 | 269 | 0.0 | 6.4 | 0.00 | 0.00 | 0.00 | 54 | 1014.5 |
| 20260904013008 | 25 | 281 | 0.0 | 8.0 | 0.00 | 0.00 | 0.00 | 54 | 1014.5 |
| 20260904012508 | 25 | 254 | 6.4 | 8.0 | 0.00 | 0.00 | 0.00 | 54 | 1014.5 |
| 20260904012008 | 25 | 241 | 3.2 | 6.4 | 0.00 | 0.00 | 0.00 | 53 | 1014.5 |
| 20260904011508 | 25 | 155 | 0.0 | 4.8 | 0.00 | 0.00 | 0.00 | 53 | 1014.5 |
| 20260904011011 | 25 | 155 | 3.2 | 8.0 | 0.00 | 0.00 | 0.00 | 53 | 1014.5 |
| 20260904010506 | 25 | 161 | 3.2 | 9.7 | 0.00 | 0.00 | 0.00 | 53 | 1014.4 |
| 20260904010009 | 25 | 163 | 6.4 | 9.7 | 0.00 | 0.00 | 0.00 | 53 | 1014.5 |
| 20260904005506 | 25 | 198 | 0.0 | 0.0 | 0.00 | 0.00 | 0.00 | 53 | 1014.5 |
| 20260904005006 | 25 | 292 | 0.0 | 0.0 | 0.00 | 0.00 | 0.00 | 53 | 1014.5 |
| 20260904004506 | 25 | 293 | 0.0 | 0.0 | 0.00 | 0.00 | 0.00 | 53 | 1014.5 |
| 20260904004005 | 25 | 296 | 0.0 | 3.2 | 0.00 | 0.00 | 0.00 | 53 | 1014.5 |
| 20260904003505 | 25 | 296 | 0.0 | 3.2 | 0.00 | 0.00 | 0.00 | 54 | 1014.3 |
| 20260904003004 | 24 | 332 | 0.0 | 1.6 | 0.00 | 0.00 | 0.00 | 54 | 1014.4 |
| 20260904002504 | 24 | 339 | 0.0 | 3.2 | 0.00 | 0.00 | 0.00 | 55 | 1014.4 |
| 20260904002004 | 24 | 340 | 0.0 | 3.2 | 0.00 | 0.00 | 0.00 | 55 | 1014.4 |
| 20260904001503 | 24 | 342 | 0.0 | 6.4 | 0.00 | 0.00 | 0.00 | 55 | 1014.5 |
| 20260904001002 | 24 | 347 | 0.0 | 6.4 | 0.00 | 0.00 | 0.00 | 54 | 1014.5 |
| 20260904000501 | 25 | 77 | 0.0 | 0.0 | 0.00 | 0.00 | 0.00 | 53 | 1014.6 |
| 20260904000002 | 25 | 76 | 0.0 | 0.0 | 0.00 | 0.00 | 0.00 | 52 | 1014.5 |
| 20260903235602 | 25 | 76 | 0.0 | 0.0 | 0.00 | 0.00 | 0.00 | 52 | 1014.5 |
| 20260903235059 | 25 | 88 | 0.0 | 6.4 | 0.00 | 0.00 | 0.00 | 51 | 1014.6 |
| 20260903234559 | 25 | 102 | 0.0 | 6.4 | 0.00 | 0.00 | 0.00 | 50 | 1014.6 |
| 20260903234059 | 25 | 104 | 1.6 | 6.4 | 0.00 | 0.00 | 0.00 | 49 | 1014.5 |
| 20260903233557 | 26 | 116 | 1.6 | 6.4 | 0.00 | 0.00 | 0.00 | 48 | 1014.5 |
| 20260903233102 | 26 | 105 | 3.2 | 6.4 | 0.00 | 0.00 | 0.00 | 48 | 1014.6 |
| 20260903232557 | 25 | 71 | 3.2 | 6.4 | 0.00 | 0.00 | 0.00 | 48 | 1014.5 |
| 20260903232058 | 25 | 121 | 0.0 | 4.8 | 0.00 | 0.00 | 0.00 | 48 | 1014.5 |
| 20260903231557 | 25 | 121 | 0.0 | 4.8 | 0.00 | 0.00 | 0.00 | 48 | 1014.6 |
| 20260903231056 | 25 | 123 | 0.0 | 4.8 | 0.00 | 0.00 | 0.00 | 48 | 1014.6 |
| 20260903230555 | 25 | 77 | 0.0 | 4.8 | 0.00 | 0.00 | 0.00 | 48 | 1014.6 |
| 20260903225555 | 25 | 101 | 0.0 | 3.2 | 0.00 | 0.00 | 0.00 | 46 | 1014.6 |
| 20260903225054 | 25 | 98 | 0.0 | 0.0 | 0.00 | 0.00 | 0.00 | 46 | 1014.7 |
| 20260903224556 | 25 | 97 | 0.0 | 0.0 | 0.00 | 0.00 | 0.00 | 47 | 1014.7 |
| 20260903224054 | 25 | 97 | 0.0 | 1.6 | 0.00 | 0.00 | 0.00 | 47 | 1014.6 |
| 20260903223553 | 25 | 72 | 0.0 | 1.6 | 0.00 | 0.00 | 0.00 | 48 | 1014.6 |
| 20260903223105 | 25 | 73 | 0.0 | 4.8 | 0.00 | 0.00 | 0.00 | 47 | 1014.7 |
| 20260903222550 | 26 | 72 | 0.0 | 4.8 | 0.00 | 0.00 | 0.00 | 46 | 1014.6 |
| 20260903222051 | 26 | 63 | 0.0 | 4.8 | 0.00 | 0.00 | 0.00 | 46 | 1014.7 |
| 20260903221550 | 26 | 49 | 1.6 | 4.8 | 0.00 | 0.00 | 0.00 | 45 | 1014.8 |
| 20260903221050 | 26 | 46 | 0.0 | 6.4 | 0.00 | 0.00 | 0.00 | 46 | 1014.8 |
| 20260903220550 | 26 | 42 | 0.0 | 8.0 | 0.00 | 0.00 | 0.00 | 46 | 1014.7 |
| 20260903220049 | 26 | 74 | 3.2 | 6.4 | 0.00 | 0.00 | 0.00 | 46 | 1014.8 |
| 20260903215549 | 26 | 143 | 0.0 | 1.6 | 0.00 | 0.00 | 0.00 | 46 | 1014.8 |
| 20260903215047 | 26 | 146 | 0.0 | 3.2 | 0.00 | 0.00 | 0.00 | 46 | 1014.7 |
| 20260903214551 | 26 | 148 | 0.0 | 4.8 | 0.00 | 0.00 | 0.00 | 44 | 1014.7 |
| 20260903214046 | 26 | 148 | 1.6 | 4.8 | 0.00 | 0.00 | 0.00 | 43 | 1014.6 |
| 20260903213550 | 26 | 146 | 0.0 | 4.8 | 0.00 | 0.00 | 0.00 | 43 | 1014.6 |
| 20260903213046 | 26 | 146 | 1.6 | 6.4 | 0.00 | 0.00 | 0.00 | 43 | 1014.6 |
| 20260903212544 | 26 | 119 | 1.6 | 6.4 | 0.00 | 0.00 | 0.00 | 45 | 1014.6 |
| 20260903212045 | 26 | 69 | 0.0 | 1.6 | 0.00 | 0.00 | 0.00 | 45 | 1014.7 |
| 20260903211601 | 26 | 69 | 0.0 | 1.6 | 0.00 | 0.00 | 0.00 | 45 | 1014.7 |
| 20260903211043 | 26 | 72 | 0.0 | 4.8 | 0.00 | 0.00 | 0.00 | 44 | 1014.6 |
| 20260903210542 | 26 | 72 | 0.0 | 6.4 | 0.00 | 0.00 | 0.00 | 45 | 1014.6 |
| 20260903210041 | 26 | 65 | 1.6 | 8.0 | 0.00 | 0.00 | 0.00 | 45 | 1014.6 |
| 20260903205540 | 26 | 10 | 3.2 | 4.8 | 0.00 | 0.00 | 0.00 | 44 | 1014.7 |
| 20260903205040 | 27 | 151 | 0.0 | 4.8 | 0.00 | 0.00 | 0.00 | 44 | 1014.6 |
| 20260903204540 | 27 | 150 | 0.0 | 4.8 | 0.00 | 0.00 | 0.00 | 43 | 1014.6 |
| 20260903204041 | 26 | 56 | 0.0 | 4.8 | 0.00 | 0.00 | 0.00 | 43 | 1014.7 |
| 20260903203539 | 26 | 53 | 0.0 | 4.8 | 0.00 | 0.00 | 0.00 | 43 | 1014.5 |
| 20260903203040 | 27 | 351 | 0.0 | 3.2 | 0.00 | 0.00 | 0.00 | 43 | 1014.7 |
| 20260903202542 | 27 | 342 | 0.0 | 3.2 | 0.00 | 0.00 | 0.00 | 43 | 1014.6 |
| 20260903202039 | 27 | 299 | 0.0 | 1.6 | 0.00 | 0.00 | 0.00 | 43 | 1014.7 |
| 20260903201539 | 27 | 301 | 0.0 | 1.6 | 0.00 | 0.00 | 0.00 | 43 | 1014.7 |
| 20260903201038 | 27 | 301 | 0.0 | 1.6 | 0.00 | 0.00 | 0.00 | 44 | 1014.7 |
| 20260903200539 | 27 | 302 | 0.0 | 3.2 | 0.00 | 0.00 | 0.00 | 44 | 1014.8 |
| 20260903200040 | 27 | 308 | 0.0 | 6.4 | 0.00 | 0.00 | 0.00 | 44 | 1014.8 |
| 20260903195538 | 26 | 311 | 1.6 | 6.4 | 0.00 | 0.00 | 0.00 | 44 | 1014.7 |
| 20260903195038 | 27 | 355 | 3.2 | 9.7 | 0.00 | 0.00 | 0.00 | 43 | 1014.6 |
| 20260903194539 | 27 | 13 | 3.2 | 12.9 | 0.00 | 0.00 | 0.00 | 43 | 1014.5 |
| 20260903194037 | 27 | 52 | 6.4 | 16.1 | 0.00 | 0.00 | 0.00 | 43 | 1014.6 |
| 20260903193537 | 27 | 86 | 6.4 | 17.7 | 0.00 | 0.00 | 0.00 | 43 | 1014.6 |
| 20260903193037 | 27 | 90 | 6.4 | 17.7 | 0.00 | 0.00 | 0.00 | 43 | 1014.5 |
| 20260903192537 | 27 | 69 | 9.7 | 17.7 | 0.00 | 0.00 | 0.00 | 43 | 1014.5 |
| 20260903192036 | 27 | 71 | 4.8 | 16.1 | 0.00 | 0.00 | 0.00 | 43 | 1014.5 |
| 20260903191536 | 27 | 87 | 6.4 | 22.5 | 0.00 | 0.00 | 0.00 | 43 | 1014.5 |
| 20260903191040 | 27 | 65 | 9.7 | 19.3 | 0.00 | 0.00 | 0.00 | 43 | 1014.5 |
| 20260903190536 | 27 | 59 | 8.0 | 17.7 | 0.00 | 0.00 | 0.00 | 43 | 1014.5 |
| 20260903190035 | 27 | 55 | 9.7 | 20.9 | 0.00 | 0.00 | 0.00 | 43 | 1014.5 |
| 20260903185536 | 27 | 76 | 3.2 | 19.3 | 0.00 | 0.00 | 0.00 | 43 | 1014.4 |
| 20260903185036 | 27 | 103 | 9.7 | 19.3 | 0.00 | 0.00 | 0.00 | 43 | 1014.3 |
| 20260903184540 | 27 | 74 | 9.7 | 17.7 | 0.00 | 0.00 | 0.00 | 43 | 1014.3 |
| 20260903184035 | 27 | 86 | 8.0 | 19.3 | 0.00 | 0.00 | 0.00 | 43 | 1014.2 |
| 20260903183534 | 27 | 78 | 9.7 | 20.9 | 0.00 | 0.00 | 0.00 | 43 | 1014.2 |
| 20260903183035 | 28 | 80 | 9.7 | 22.5 | 0.00 | 0.00 | 0.00 | 43 | 1014.1 |
| 20260903182535 | 28 | 101 | 9.7 | 22.5 | 0.00 | 0.00 | 0.00 | 43 | 1014.1 |
| 20260903182035 | 28 | 98 | 12.9 | 20.9 | 0.00 | 0.00 | 0.00 | 43 | 1014.1 |
| 20260903181534 | 28 | 105 | 12.9 | 20.9 | 0.00 | 0.00 | 0.00 | 43 | 1014.0 |
| 20260903181036 | 28 | 88 | 14.5 | 24.1 | 0.00 | 0.00 | 0.00 | 43 | 1014.1 |
| 20260903180535 | 28 | 59 | 16.1 | 24.1 | 0.00 | 0.00 | 0.00 | 43 | 1014.0 |
| 20260903180037 | 28 | 80 | 12.9 | 20.9 | 0.00 | 0.00 | 0.00 | 43 | 1014.0 |
| 20260903175533 | 28 | 69 | 11.3 | 20.9 | 0.00 | 0.00 | 0.00 | 43 | 1014.1 |
| 20260903175033 | 28 | 128 | 12.9 | 20.9 | 0.00 | 0.00 | 0.00 | 43 | 1014.0 |
| 20260903174537 | 28 | 57 | 11.3 | 20.9 | 0.00 | 0.00 | 0.00 | 43 | 1014.0 |
| 20260903174033 | 28 | 78 | 12.9 | 20.9 | 0.00 | 0.00 | 0.00 | 43 | 1013.9 |
| 20260903173537 | 28 | 86 | 11.3 | 20.9 | 0.00 | 0.00 | 0.00 | 43 | 1013.8 |
| 20260903173037 | 28 | 86 | 9.7 | 20.9 | 0.00 | 0.00 | 0.00 | 43 | 1013.9 |
| 20260903172532 | 28 | 56 | 9.7 | 22.5 | 0.00 | 0.00 | 0.00 | 43 | 1013.9 |
| 20260903172034 | 28 | 59 | 8.0 | 22.5 | 0.00 | 0.00 | 0.00 | 43 | 1013.9 |
| 20260903171535 | 28 | 49 | 12.9 | 20.9 | 0.00 | 0.00 | 0.00 | 43 | 1013.8 |
| 20260903171033 | 28 | 82 | 9.7 | 24.1 | 0.00 | 0.00 | 0.00 | 43 | 1013.8 |
| 20260903170531 | 28 | 46 | 11.3 | 25.7 | 0.00 | 0.00 | 0.00 | 43 | 1013.8 |
| 20260903170033 | 28 | 58 | 11.3 | 24.1 | 0.00 | 0.00 | 0.00 | 43 | 1013.7 |
| 20260903165530 | 28 | 50 | 12.9 | 24.1 | 0.00 | 0.00 | 0.00 | 43 | 1013.6 |
| 20260903165032 | 28 | 61 | 12.9 | 25.7 | 0.00 | 0.00 | 0.00 | 43 | 1013.6 |
| 20260903164530 | 29 | 25 | 14.5 | 29.0 | 0.00 | 0.00 | 0.00 | 43 | 1013.6 |
| 20260903164032 | 29 | 53 | 14.5 | 29.0 | 0.00 | 0.00 | 0.00 | 42 | 1013.5 |
| 20260903163531 | 29 | 101 | 12.9 | 27.4 | 0.00 | 0.00 | 0.00 | 42 | 1013.5 |
| 20260903163030 | 29 | 26 | 11.3 | 37.0 | 0.00 | 0.00 | 0.00 | 42 | 1013.4 |
| 20260903162529 | 29 | 49 | 19.3 | 37.0 | 0.00 | 0.00 | 0.00 | 42 | 1013.3 |
| 20260903162029 | 29 | 59 | 12.9 | 35.4 | 0.00 | 0.00 | 0.00 | 42 | 1013.3 |
| 20260903161529 | 29 | 47 | 16.1 | 35.4 | 0.00 | 0.00 | 0.00 | 42 | 1013.3 |
| 20260903161028 | 30 | 62 | 20.9 | 41.8 | 0.00 | 0.00 | 0.00 | 42 | 1013.3 |
| 20260903160528 | 30 | 19 | 19.3 | 41.8 | 0.00 | 0.00 | 0.00 | 41 | 1013.2 |
| 20260903160027 | 30 | 45 | 20.9 | 43.5 | 0.00 | 0.00 | 0.00 | 41 | 1013.2 |
| 20260903155527 | 30 | 52 | 14.5 | 35.4 | 0.00 | 0.00 | 0.00 | 41 | 1013.2 |
| 20260903155027 | 30 | 28 | 16.1 | 35.4 | 0.00 | 0.00 | 0.00 | 41 | 1013.1 |
| 20260903154527 | 30 | 84 | 17.7 | 40.2 | 0.00 | 0.00 | 0.00 | 41 | 1013.2 |
| 20260903154025 | 30 | 49 | 25.7 | 40.2 | 0.00 | 0.00 | 0.00 | 41 | 1013.1 |
| 20260903153527 | 30 | 63 | 20.9 | 37.0 | 0.00 | 0.00 | 0.00 | 41 | 1013.0 |
| 20260903153025 | 30 | 51 | 16.1 | 38.6 | 0.00 | 0.00 | 0.00 | 40 | 1013.1 |
| 20260903152525 | 30 | 81 | 19.3 | 38.6 | 0.00 | 0.00 | 0.00 | 40 | 1013.1 |
| 20260903152025 | 30 | 76 | 14.5 | 38.6 | 0.00 | 0.00 | 0.00 | 42 | 1013.2 |
| 20260903151529 | 30 | 53 | 14.5 | 35.4 | 0.00 | 0.00 | 0.00 | 42 | 1013.2 |
| 20260903151025 | 30 | 72 | 17.7 | 38.6 | 0.00 | 0.00 | 0.00 | 43 | 1013.2 |
| 20260903150525 | 30 | 49 | 22.5 | 38.6 | 0.00 | 0.00 | 0.00 | 42 | 1013.3 |
| 20260903150024 | 30 | 71 | 20.9 | 38.6 | 0.00 | 0.00 | 0.00 | 43 | 1013.2 |
| 20260903145524 | 30 | 86 | 22.5 | 38.6 | 0.00 | 0.00 | 0.00 | 43 | 1013.3 |
| 20260903145022 | 30 | 81 | 17.7 | 37.0 | 0.00 | 0.00 | 0.00 | 44 | 1013.3 |
| 20260903144522 | 30 | 90 | 19.3 | 43.5 | 0.00 | 0.00 | 0.00 | 43 | 1013.3 |
| 20260903144023 | 30 | 94 | 19.3 | 43.5 | 0.00 | 0.00 | 0.00 | 44 | 1013.1 |
| 20260903143520 | 31 | 23 | 19.3 | 35.4 | 0.00 | 0.00 | 0.00 | 45 | 1013.1 |
| 20260903143020 | 31 | 74 | 17.7 | 33.8 | 0.00 | 0.00 | 0.00 | 45 | 1013.2 |
| 20260903142520 | 31 | 74 | 19.3 | 32.2 | 0.00 | 0.00 | 0.00 | 43 | 1013.2 |
| 20260903142018 | 31 | 38 | 16.1 | 35.4 | 0.00 | 0.00 | 0.00 | 43 | 1013.2 |
| 20260903141518 | 31 | 50 | 20.9 | 33.8 | 0.00 | 0.00 | 0.00 | 43 | 1013.1 |
| 20260903141017 | 32 | 47 | 25.7 | 32.2 | 0.00 | 0.00 | 0.00 | 42 | 1013.2 |
| 20260903140516 | 32 | 61 | 11.3 | 35.4 | 0.00 | 0.00 | 0.00 | 42 | 1013.2 |
| 20260903140030 | 32 | 71 | 17.7 | 35.4 | 0.00 | 0.00 | 0.00 | 42 | 1013.0 |
| 20260903135514 | 32 | 43 | 20.9 | 35.4 | 0.00 | 0.00 | 0.00 | 42 | 1013.0 |
| 20260903135013 | 32 | 24 | 19.3 | 35.4 | 0.00 | 0.00 | 0.00 | 41 | 1012.8 |
| 20260903134518 | 32 | 88 | 20.9 | 35.4 | 0.00 | 0.00 | 0.00 | 41 | 1012.8 |
| 20260903134017 | 32 | 101 | 19.3 | 35.4 | 0.00 | 0.00 | 0.00 | 41 | 1012.7 |
| 20260903133512 | 32 | 59 | 14.5 | 33.8 | 0.00 | 0.00 | 0.00 | 41 | 1012.7 |
| 20260903133012 | 32 | 88 | 17.7 | 33.8 | 0.00 | 0.00 | 0.00 | 40 | 1012.7 |
| 20260903132512 | 32 | 48 | 17.7 | 33.8 | 0.00 | 0.00 | 0.00 | 41 | 1012.9 |
| 20260903132015 | 32 | 99 | 19.3 | 33.8 | 0.00 | 0.00 | 0.00 | 40 | 1012.9 |
| 20260903131512 | 32 | 66 | 16.1 | 33.8 | 0.00 | 0.00 | 0.00 | 40 | 1012.9 |
| 20260903131011 | 32 | 80 | 17.7 | 33.8 | 0.00 | 0.00 | 0.00 | 40 | 1012.8 |
| 20260903130514 | 32 | 60 | 19.3 | 30.6 | 0.00 | 0.00 | 0.00 | 40 | 1012.9 |
| 20260903130130 | 32 | 48 | 17.7 | 30.6 | 0.00 | 0.00 | 0.00 | 39 | 1013.0 |
| 20260903125509 | 32 | 112 | 14.5 | 41.8 | 0.00 | 0.00 | 0.00 | 41 | 1013.2 |
| 20260903125009 | 32 | 69 | 27.4 | 41.8 | 0.00 | 0.00 | 0.00 | 40 | 1013.3 |
| 20260903124509 | 32 | 90 | 16.1 | 33.8 | 0.00 | 0.00 | 0.00 | 40 | 1013.2 |
| 20260903124008 | 32 | 88 | 14.5 | 32.2 | 0.00 | 0.00 | 0.00 | 40 | 1013.1 |
| 20260903123508 | 32 | 23 | 17.7 | 35.4 | 0.00 | 0.00 | 0.00 | 39 | 1013.2 |
| 20260903123014 | 32 | 94 | 14.5 | 35.4 | 0.00 | 0.00 | 0.00 | 40 | 1013.2 |
| 20260903122508 | 32 | 101 | 19.3 | 33.8 | 0.00 | 0.00 | 0.00 | 40 | 1013.2 |
| 20260903122008 | 32 | 79 | 20.9 | 38.6 | 0.00 | 0.00 | 0.00 | 41 | 1013.2 |
| 20260903121508 | 32 | 59 | 20.9 | 37.0 | 0.00 | 0.00 | 0.00 | 41 | 1013.2 |
| 20260903121009 | 32 | 71 | 17.7 | 33.8 | 0.00 | 0.00 | 0.00 | 41 | 1013.2 |
| 20260903120506 | 32 | 90 | 22.5 | 37.0 | 0.00 | 0.00 | 0.00 | 41 | 1013.2 |
| 20260903120006 | 32 | 74 | 27.4 | 37.0 | 0.00 | 0.00 | 0.00 | 40 | 1013.2 |
| 20260903115505 | 32 | 13 | 19.3 | 35.4 | 0.00 | 0.00 | 0.00 | 41 | 1013.3 |
| 20260903115005 | 32 | 80 | 22.5 | 35.4 | 0.00 | 0.00 | 0.00 | 41 | 1013.3 |
| 20260903114508 | 32 | 61 | 20.9 | 33.8 | 0.00 | 0.00 | 0.00 | 42 | 1013.4 |
| 20260903114005 | 32 | 69 | 16.1 | 35.4 | 0.00 | 0.00 | 0.00 | 42 | 1013.4 |
| 20260903113504 | 32 | 97 | 17.7 | 37.0 | 0.00 | 0.00 | 0.00 | 42 | 1013.4 |
| 20260903113004 | 32 | 119 | 19.3 | 33.8 | 0.00 | 0.00 | 0.00 | 42 | 1013.3 |
| 20260903112504 | 32 | 86 | 19.3 | 32.2 | 0.00 | 0.00 | 0.00 | 42 | 1013.4 |
| 20260903112004 | 32 | 92 | 17.7 | 32.2 | 0.00 | 0.00 | 0.00 | 42 | 1013.4 |
| 20260903111504 | 32 | 119 | 16.1 | 37.0 | 0.00 | 0.00 | 0.00 | 43 | 1013.5 |
| 20260903111003 | 32 | 22 | 16.1 | 37.0 | 0.00 | 0.00 | 0.00 | 43 | 1013.4 |
| 20260903110503 | 32 | 98 | 16.1 | 37.0 | 0.00 | 0.00 | 0.00 | 43 | 1013.5 |
| 20260903110002 | 32 | 93 | 20.9 | 37.0 | 0.00 | 0.00 | 0.00 | 43 | 1013.5 |
| 20260903105502 | 32 | 80 | 8.0 | 29.0 | 0.00 | 0.00 | 0.00 | 43 | 1013.5 |
| 20260903105102 | 32 | 42 | 17.7 | 30.6 | 0.00 | 0.00 | 0.00 | 43 | 1013.5 |
| 20260903104500 | 32 | 117 | 11.3 | 40.2 | 0.00 | 0.00 | 0.00 | 44 | 1013.7 |
| 20260903104102 | 32 | 86 | 17.7 | 40.2 | 0.00 | 0.00 | 0.00 | 44 | 1013.6 |
| 20260903103602 | 32 | 109 | 16.1 | 38.6 | 0.00 | 0.00 | 0.00 | 43 | 1013.6 |
| 20260903103100 | 32 | 121 | 17.7 | 38.6 | 0.00 | 0.00 | 0.00 | 43 | 1013.6 |
| 20260903102558 | 32 | 83 | 12.9 | 27.4 | 0.00 | 0.00 | 0.00 | 43 | 1013.6 |
| 20260903102059 | 32 | 84 | 12.9 | 33.8 | 0.00 | 0.00 | 0.00 | 43 | 1013.7 |
| 20260903101602 | 32 | 81 | 20.9 | 33.8 | 0.00 | 0.00 | 0.00 | 42 | 1013.7 |
| 20260903101057 | 32 | 40 | 17.7 | 27.4 | 0.00 | 0.00 | 0.00 | 41 | 1013.7 |
| 20260903100556 | 33 | 105 | 9.7 | 20.9 | 0.00 | 0.00 | 0.00 | 41 | 1013.7 |
| 20260903100055 | 32 | 74 | 8.0 | 24.1 | 0.00 | 0.00 | 0.00 | 42 | 1013.7 |
| 20260903095553 | 32 | 39 | 11.3 | 33.8 | 0.00 | 0.00 | 0.00 | 42 | 1013.9 |
| 20260903095054 | 32 | 60 | 16.1 | 33.8 | 0.00 | 0.00 | 0.00 | 42 | 1014.0 |
| 20260903094604 | 32 | 26 | 11.3 | 30.6 | 0.00 | 0.00 | 0.00 | 42 | 1014.0 |
| 20260903094049 | 32 | 40 | 20.9 | 37.0 | 0.00 | 0.00 | 0.00 | 43 | 1014.1 |
| 20260903093548 | 32 | 40 | 24.1 | 33.8 | 0.00 | 0.00 | 0.00 | 42 | 1014.1 |
| 20260903093049 | 31 | 69 | 20.9 | 33.8 | 0.00 | 0.00 | 0.00 | 43 | 1014.1 |
| 20260903092546 | 31 | 96 | 19.3 | 32.2 | 0.00 | 0.00 | 0.00 | 42 | 1014.0 |
| 20260903092045 | 31 | 35 | 16.1 | 37.0 | 0.00 | 0.00 | 0.00 | 43 | 1014.1 |
| 20260903091543 | 31 | 24 | 25.7 | 37.0 | 0.00 | 0.00 | 0.00 | 43 | 1014.1 |
| 20260903091043 | 31 | 45 | 16.1 | 38.6 | 0.00 | 0.00 | 0.00 | 43 | 1014.1 |
| 20260903090542 | 31 | 118 | 16.1 | 38.6 | 0.00 | 0.00 | 0.00 | 42 | 1014.1 |
| 20260903090054 | 31 | 113 | 11.3 | 38.6 | 0.00 | 0.00 | 0.00 | 43 | 1014.2 |
| 20260903085540 | 31 | 70 | 19.3 | 41.8 | 0.00 | 0.00 | 0.00 | 44 | 1014.2 |
| 20260903085039 | 31 | 92 | 24.1 | 41.8 | 0.00 | 0.00 | 0.00 | 43 | 1014.3 |
| 20260903084538 | 31 | 67 | 20.9 | 35.4 | 0.00 | 0.00 | 0.00 | 43 | 1014.5 |
| 20260903084038 | 31 | 90 | 20.9 | 40.2 | 0.00 | 0.00 | 0.00 | 43 | 1014.5 |
| 20260903083538 | 30 | 74 | 24.1 | 40.2 | 0.00 | 0.00 | 0.00 | 43 | 1014.5 |
| 20260903083053 | 31 | 87 | 20.9 | 35.4 | 0.00 | 0.00 | 0.00 | 42 | 1014.4 |
| 20260903082536 | 31 | 71 | 24.1 | 35.4 | 0.00 | 0.00 | 0.00 | 41 | 1014.3 |
| 20260903082035 | 31 | 65 | 9.7 | 30.6 | 0.00 | 0.00 | 0.00 | 42 | 1014.5 |
| 20260903081535 | 31 | 95 | 16.1 | 30.6 | 0.00 | 0.00 | 0.00 | 42 | 1014.4 |